Time;durP1;ratioP1;P1;durP2;ratioP2;P2;SDS_P1;SDS_P2;PMS_P1;PMS_P2;Temp;Humidity;BMP_temperature;BMP_pressure;BME280_temperature;BME280_humidity;BME280_pressure;Samples;Min_cycle;Max_cycle;Signal;HPM_P1;HPM_P2
2021/12/31 00:00:46;;;;;;;8.35;3.63;;;;;;;13.34;86.43;100557.72;5078544;28;20112;-86
2021/12/31 00:03:14;;;;;;;6.68;2.80;;;;;;;13.36;86.39;100562.94;5048202;28;20051;-86
2021/12/31 00:05:41;;;;;;;6.03;3.20;;;;;;;13.35;86.41;100559.41;5072896;28;20179;-86
2021/12/31 00:12:43;;;;;;;13.80;5.18;;;;;;;13.31;86.63;100562.50;5034973;28;20376;-86
2021/12/31 00:15:11;;;;;;;7.05;3.53;;;;;;;13.35;86.18;100561.22;5048262;28;20590;-87
2021/12/31 00:17:39;;;;;;;6.70;3.20;;;;;;;13.33;86.27;100558.72;5062672;28;20479;-87
2021/12/31 00:24:38;;;;;;;11.27;4.28;;;;;;;13.28;86.67;100565.41;5057298;28;20064;-86
2021/12/31 00:27:05;;;;;;;7.28;3.75;;;;;;;13.30;86.58;100563.47;5065589;28;20123;-86
2021/12/31 00:29:32;;;;;;;8.15;3.85;;;;;;;13.31;86.31;100562.50;5051914;28;20522;-86
2021/12/31 00:31:59;;;;;;;9.80;3.00;;;;;;;13.32;86.41;100558.84;5039212;28;20594;-86
2021/12/31 00:38:59;;;;;;;8.73;3.47;;;;;;;13.29;86.33;100577.78;5046666;28;21044;-86
2021/12/31 00:41:26;;;;;;;3.90;2.83;;;;;;;13.30;86.02;100585.63;5046185;28;20047;-86
2021/12/31 00:43:53;;;;;;;7.45;3.35;;;;;;;13.32;86.30;100583.69;5030317;28;20152;-86
2021/12/31 00:46:20;;;;;;;11.23;3.50;;;;;;;13.32;86.29;100581.03;5062810;28;20040;-87
2021/12/31 00:49:14;;;;;;;6.28;3.25;;;;;;;13.16;85.95;100586.84;5062969;28;20333;-86
2021/12/31 00:51:41;;;;;;;7.72;3.50;;;;;;;13.31;86.06;100581.19;4973286;28;20048;-86
2021/12/31 00:54:07;;;;;;;9.65;3.20;;;;;;;13.31;85.66;100583.84;5061369;28;20093;-86
2021/12/31 00:56:34;;;;;;;7.50;2.95;;;;;;;13.30;85.70;100590.97;5037674;28;20521;-86
2021/12/31 00:59:27;;;;;;;8.65;2.80;;;;;;;13.14;85.72;100593.28;5044382;28;20496;-86
2021/12/31 01:01:54;;;;;;;6.03;2.85;;;;;;;13.26;85.79;100586.88;5041346;28;20124;-86
2021/12/31 01:04:22;;;;;;;6.32;2.45;;;;;;;13.28;85.54;100586.75;5064150;28;20370;-86
2021/12/31 01:06:49;;;;;;;8.93;3.30;;;;;;;13.26;85.77;100584.22;5047739;28;20044;-86
2021/12/31 01:09:16;;;;;;;7.85;2.92;;;;;;;13.25;85.49;100593.16;5077671;28;20131;-87
2021/12/31 01:11:46;;;;;;;8.30;2.95;;;;;;;13.24;85.51;100578.16;5079546;28;20110;-86
2021/12/31 01:17:03;;;;;;;9.32;2.50;;;;;;;13.22;85.74;100582.78;5038510;28;20051;-86
2021/12/31 01:24:01;;;;;;;6.85;2.92;;;;;;;13.15;85.61;100589.63;5044148;28;20099;-87
2021/12/31 01:26:29;;;;;;;8.00;2.85;;;;;;;13.16;85.89;100586.00;5058734;28;20840;-86
2021/12/31 01:28:55;;;;;;;6.82;2.90;;;;;;;13.14;85.72;100583.44;5051257;28;20036;-86
2021/12/31 01:31:24;;;;;;;5.63;2.90;;;;;;;13.15;85.60;100590.50;5045133;28;20044;-86
2021/12/31 01:33:51;;;;;;;10.15;3.30;;;;;;;13.14;85.29;100580.78;5068445;28;20048;-86
2021/12/31 01:36:18;;;;;;;9.13;2.95;;;;;;;13.15;85.58;100592.28;5066421;28;20365;-86
2021/12/31 01:38:45;;;;;;;5.22;2.95;;;;;;;13.13;85.67;100584.44;5036271;28;20044;-86
2021/12/31 01:41:12;;;;;;;6.70;2.83;;;;;;;13.13;85.55;100588.94;5035907;28;20045;-86
2021/12/31 01:43:39;;;;;;;7.55;2.85;;;;;;;13.12;85.70;100585.41;5044280;28;20388;-86
2021/12/31 01:46:11;;;;;;;6.95;2.80;;;;;;;13.12;85.40;100580.06;5081040;28;20088;-87
2021/12/31 01:51:26;;;;;;;9.30;2.72;;;;;;;13.10;85.36;100594.50;5044788;28;20048;-86
2021/12/31 01:53:53;;;;;;;8.05;2.85;;;;;;;13.11;85.00;100596.22;5042977;28;20037;-86
2021/12/31 01:56:20;;;;;;;6.72;2.97;;;;;;;13.11;85.21;100589.06;5051456;28;20056;-86
2021/12/31 01:59:16;;;;;;;6.47;3.13;;;;;;;12.96;85.07;100587.72;5082556;28;20072;-86
2021/12/31 02:01:43;;;;;;;6.72;2.88;;;;;;;13.09;85.27;100587.50;5058854;28;20037;-86
2021/12/31 02:04:10;;;;;;;7.63;2.95;;;;;;;13.08;85.04;100584.00;5053910;28;20115;-86
2021/12/31 02:06:36;;;;;;;15.02;3.22;;;;;;;13.06;84.89;100582.44;5040147;28;20391;-87
2021/12/31 02:09:05;;;;;;;8.98;3.30;;;;;;;13.07;84.56;100587.63;5055169;28;20074;-87
2021/12/31 02:11:32;;;;;;;6.93;2.85;;;;;;;13.05;84.52;100578.91;5066653;28;20056;-86
2021/12/31 02:14:02;;;;;;;5.80;2.65;;;;;;;13.05;84.63;100581.56;5067113;28;20047;-86
2021/12/31 02:16:31;;;;;;;5.55;3.25;;;;;;;13.03;84.53;100587.06;5016393;28;20074;-86
2021/12/31 02:18:59;;;;;;;8.35;3.05;;;;;;;13.00;84.36;100584.66;5068919;28;20510;-86
2021/12/31 02:21:25;;;;;;;8.43;2.75;;;;;;;13.02;84.14;100582.69;5036720;28;20048;-86
2021/12/31 02:23:55;;;;;;;8.75;2.83;;;;;;;13.00;83.76;100591.78;5083500;28;20071;-86
2021/12/31 02:26:22;;;;;;;8.18;2.53;;;;;;;12.99;83.58;100587.44;5063289;28;20048;-86
2021/12/31 02:28:48;;;;;;;7.97;2.53;;;;;;;12.98;83.69;100583.09;5049260;28;20041;-86
2021/12/31 02:31:15;;;;;;;7.95;3.00;;;;;;;12.97;83.43;100590.25;5065744;28;20056;-86
2021/12/31 02:33:43;;;;;;;5.18;3.10;;;;;;;12.96;83.28;100580.56;5081076;28;20048;-86
2021/12/31 02:36:10;;;;;;;8.65;3.40;;;;;;;12.96;83.20;100579.72;5069309;28;20048;-86
2021/12/31 02:38:37;;;;;;;7.45;2.97;;;;;;;12.92;82.92;100584.47;5081511;28;20052;-86
2021/12/31 02:41:04;;;;;;;8.82;3.13;;;;;;;12.91;82.71;100584.59;5062256;28;20384;-86
2021/12/31 02:43:31;;;;;;;6.32;2.95;;;;;;;12.92;82.90;100596.94;5061616;28;20067;-86
2021/12/31 02:45:58;;;;;;;13.80;3.47;;;;;;;12.90;82.62;100596.22;5070672;28;20044;-86
2021/12/31 02:48:25;;;;;;;11.32;3.33;;;;;;;12.89;83.02;100594.56;5085819;28;20048;-86
2021/12/31 02:55:36;;;;;;;7.28;3.05;;;;;;;12.80;83.01;100591.72;5052519;28;20388;-86
2021/12/31 02:58:05;;;;;;;9.40;3.22;;;;;;;12.81;82.40;100598.72;5045589;28;20056;-86
2021/12/31 03:00:33;;;;;;;9.98;2.85;;;;;;;12.79;82.64;100587.34;5059241;28;20051;-86
2021/12/31 03:03:01;;;;;;;9.95;3.25;;;;;;;12.78;82.53;100585.66;5061177;28;20048;-86
2021/12/31 03:05:29;;;;;;;10.15;3.33;;;;;;;12.79;82.19;100591.81;5064941;28;20496;-86
2021/12/31 03:07:56;;;;;;;7.93;3.10;;;;;;;12.78;82.35;100603.47;5032990;28;20668;-86
2021/12/31 03:14:54;;;;;;;9.32;3.22;;;;;;;12.68;81.92;100598.09;5048417;28;20448;-86
2021/12/31 03:17:22;;;;;;;10.93;3.92;;;;;;;12.69;81.79;100605.09;5029926;28;20040;-86
2021/12/31 03:19:49;;;;;;;12.75;3.75;;;;;;;12.69;82.06;100610.41;5062947;28;20504;-86
2021/12/31 03:22:16;;;;;;;8.38;3.22;;;;;;;12.71;82.23;100605.81;5039803;28;20054;-86
2021/12/31 03:24:44;;;;;;;10.50;3.40;;;;;;;12.71;81.84;100611.13;5046678;28;20060;-86
2021/12/31 03:27:10;;;;;;;11.98;3.72;;;;;;;12.70;82.06;100614.78;5075593;28;20048;-86
2021/12/31 03:29:37;;;;;;;8.77;3.67;;;;;;;12.71;82.16;100607.63;5049433;28;20051;-86
2021/12/31 03:32:04;;;;;;;6.80;3.67;;;;;;;12.69;81.90;100610.41;5046216;28;20037;-86
2021/12/31 03:34:30;;;;;;;7.30;3.55;;;;;;;12.68;81.73;100608.75;5047730;28;20381;-86
2021/12/31 03:36:57;;;;;;;7.65;3.88;;;;;;;12.68;81.95;100608.75;5052274;28;20052;-86
2021/12/31 03:39:24;;;;;;;12.98;3.70;;;;;;;12.68;82.10;100607.91;5067657;28;20119;-86
2021/12/31 03:41:51;;;;;;;7.43;3.90;;;;;;;12.65;81.86;100609.00;5049124;28;20054;-86
2021/12/31 03:44:18;;;;;;;9.13;3.25;;;;;;;12.67;81.79;100611.53;5064756;28;20044;-86
2021/12/31 03:46:44;;;;;;;10.35;4.22;;;;;;;12.66;82.03;100620.50;5068276;28;20047;-86
2021/12/31 03:49:11;;;;;;;12.63;3.95;;;;;;;12.66;82.20;100605.34;5081095;28;20059;-86
2021/12/31 03:51:38;;;;;;;12.80;4.35;;;;;;;12.65;82.19;100601.00;5046574;28;20049;-86
2021/12/31 03:54:08;;;;;;;12.45;4.22;;;;;;;12.62;81.73;100595.09;5059884;28;20045;-86
2021/12/31 03:56:35;;;;;;;9.48;3.72;;;;;;;12.63;81.58;100596.78;5078197;28;20399;-87
2021/12/31 03:59:02;;;;;;;7.13;3.95;;;;;;;12.62;81.57;100601.28;5062455;28;20051;-86
2021/12/31 04:01:28;;;;;;;8.73;4.15;;;;;;;12.61;81.47;100591.59;5046438;28;20063;-86
2021/12/31 04:03:56;;;;;;;7.85;3.53;;;;;;;12.59;81.81;100596.19;5080766;28;20052;-86
2021/12/31 04:06:23;;;;;;;8.65;3.85;;;;;;;12.59;81.97;100585.53;5081248;28;20045;-87
2021/12/31 04:13:45;;;;;;;7.93;4.45;;;;;;;12.54;82.42;100579.75;5060119;28;20387;-86
2021/12/31 04:16:11;;;;;;;8.32;4.00;;;;;;;12.54;81.51;100580.63;5044999;28;20044;-86
2021/12/31 04:18:38;;;;;;;10.52;4.05;;;;;;;12.54;81.52;100579.75;5048208;28;20047;-86
2021/12/31 04:21:05;;;;;;;8.50;3.95;;;;;;;12.53;81.66;100584.25;5041764;28;20041;-86
2021/12/31 04:23:35;;;;;;;7.85;3.95;;;;;;;12.54;81.52;100590.41;5065473;28;20043;-87
2021/12/31 04:26:02;;;;;;;10.50;4.22;;;;;;;12.53;81.43;100583.41;5046272;28;20070;-86
2021/12/31 04:28:29;;;;;;;8.02;3.53;;;;;;;12.51;81.49;100583.50;5051581;28;20040;-86
2021/12/31 04:30:57;;;;;;;7.70;4.00;;;;;;;12.52;81.61;100585.22;5065015;28;20044;-86
2021/12/31 04:33:23;;;;;;;8.60;3.75;;;;;;;12.53;81.77;100583.41;5059269;28;20044;-86
2021/12/31 04:35:50;;;;;;;9.57;4.47;;;;;;;12.53;82.14;100578.06;5062760;28;20040;-86
2021/12/31 04:38:17;;;;;;;13.00;5.70;;;;;;;12.54;82.35;100579.75;5064124;28;20051;-86
2021/12/31 04:40:44;;;;;;;11.10;5.45;;;;;;;12.52;82.02;100579.91;5077454;28;20036;-86
2021/12/31 04:43:10;;;;;;;10.15;4.15;;;;;;;12.53;81.21;100583.41;5054950;28;20496;-86
2021/12/31 04:45:37;;;;;;;9.85;4.18;;;;;;;12.50;81.48;100583.66;5079635;28;20088;-86
2021/12/31 04:48:05;;;;;;;12.88;5.32;;;;;;;12.51;81.62;100580.00;5063367;28;20125;-86
2021/12/31 04:50:31;;;;;;;9.93;4.10;;;;;;;12.50;81.49;100581.84;5068736;28;20044;-86
2021/12/31 04:52:58;;;;;;;9.95;4.40;;;;;;;12.49;81.59;100576.63;5057830;28;20047;-85
2021/12/31 04:55:26;;;;;;;14.60;7.07;;;;;;;12.48;82.05;100556.31;5050160;28;20052;-86
2021/12/31 04:57:53;;;;;;;16.38;6.95;;;;;;;12.49;82.26;100563.31;5047209;28;20045;-86
2021/12/31 05:00:20;;;;;;;15.05;7.68;;;;;;;12.48;82.29;100561.63;5028036;28;20075;-86
2021/12/31 05:02:46;;;;;;;18.83;7.07;;;;;;;12.48;82.42;100562.47;5081560;28;20403;-86
2021/12/31 05:05:13;;;;;;;9.52;5.55;;;;;;;12.49;82.65;100560.66;5072979;28;20552;-86
2021/12/31 05:07:40;;;;;;;10.57;5.30;;;;;;;12.49;82.58;100560.66;5071313;28;20062;-86
2021/12/31 05:10:07;;;;;;;11.20;4.85;;;;;;;12.51;82.66;100556.03;5064106;28;20484;-86
2021/12/31 05:12:37;;;;;;;10.73;4.65;;;;;;;12.50;82.59;100555.19;5066311;28;20484;-86
2021/12/31 05:15:09;;;;;;;9.95;3.40;;;;;;;12.46;82.02;100553.75;5052696;28;20037;-86
2021/12/31 05:17:36;;;;;;;11.98;5.05;;;;;;;12.48;82.44;100550.97;5087668;28;20119;-86
2021/12/31 05:20:04;;;;;;;6.20;3.90;;;;;;;12.48;82.20;100550.97;5037218;28;20402;-86
2021/12/31 05:22:31;;;;;;;7.65;4.20;;;;;;;12.48;82.27;100556.31;5052769;28;20096;-86
2021/12/31 05:24:58;;;;;;;8.55;4.72;;;;;;;12.46;82.63;100551.09;5063335;28;20052;-86
2021/12/31 05:27:24;;;;;;;13.38;5.05;;;;;;;12.47;82.69;100552.81;5053701;28;20048;-86
2021/12/31 05:29:51;;;;;;;12.18;4.80;;;;;;;12.48;82.75;100551.81;5050374;28;20369;-86
2021/12/31 05:32:18;;;;;;;11.02;4.95;;;;;;;12.48;82.69;100550.97;5066431;28;20043;-86
2021/12/31 05:34:45;;;;;;;11.93;5.35;;;;;;;12.48;82.82;100551.81;5051833;28;20487;-86
2021/12/31 05:37:11;;;;;;;12.55;5.10;;;;;;;12.48;82.65;100543.00;5050999;28;20115;-87
2021/12/31 05:39:38;;;;;;;10.55;5.13;;;;;;;12.46;82.83;100545.78;5051405;28;20052;-86
2021/12/31 05:42:05;;;;;;;7.90;4.90;;;;;;;12.47;82.92;100547.47;5052718;28;20079;-87
2021/12/31 05:44:32;;;;;;;7.90;4.65;;;;;;;12.46;82.52;100555.59;5048857;28;20037;-86
2021/12/31 05:46:59;;;;;;;8.02;4.55;;;;;;;12.45;82.72;100544.09;5053377;28;20491;-86
2021/12/31 05:49:28;;;;;;;12.73;5.13;;;;;;;12.44;82.70;100545.09;5086070;28;20404;-86
2021/12/31 05:51:55;;;;;;;9.93;4.72;;;;;;;12.45;82.41;100545.91;5082705;28;20123;-87
2021/12/31 05:54:22;;;;;;;12.68;5.90;;;;;;;12.43;82.50;100539.88;5069969;28;20055;-86
2021/12/31 05:56:49;;;;;;;11.90;4.80;;;;;;;12.42;82.39;100544.34;5033415;28;20044;-86
2021/12/31 05:59:16;;;;;;;12.43;4.45;;;;;;;12.42;82.52;100539.03;5066161;28;20138;-86
2021/12/31 06:01:45;;;;;;;9.10;4.25;;;;;;;12.41;82.28;100539.16;5082695;28;20056;-86
2021/12/31 06:04:12;;;;;;;11.77;4.60;;;;;;;12.41;82.44;100544.47;5046816;28;20518;-86
2021/12/31 06:06:39;;;;;;;11.73;4.25;;;;;;;12.40;82.43;100540.97;5065716;28;20541;-85
2021/12/31 06:09:07;;;;;;;9.80;4.15;;;;;;;12.39;82.39;100544.63;5030096;28;20044;-86
2021/12/31 06:11:34;;;;;;;6.57;3.65;;;;;;;12.38;82.10;100537.59;5057557;28;20126;-86
2021/12/31 06:14:03;;;;;;;9.55;4.65;;;;;;;12.37;82.13;100538.59;5056219;28;20040;-86
2021/12/31 06:16:37;;;;;;;9.88;4.72;;;;;;;12.34;82.30;100541.50;5068249;28;20044;-86
2021/12/31 06:19:04;;;;;;;9.23;3.97;;;;;;;12.36;82.00;100558.19;5060396;28;20036;-86
2021/12/31 06:21:35;;;;;;;9.85;3.70;;;;;;;12.32;82.18;100562.94;5051353;28;20047;-86
2021/12/31 06:24:02;;;;;;;9.18;4.40;;;;;;;12.33;82.13;100564.59;5052387;28;20399;-86
2021/12/31 06:30:36;;;;;;;14.23;3.75;;;;;;;12.28;82.08;100569.47;5039807;28;20029;-85
2021/12/31 06:33:03;;;;;;;6.32;3.10;;;;;;;12.27;81.58;100572.28;5035453;28;20123;-86
2021/12/31 06:35:29;;;;;;;5.82;3.08;;;;;;;12.27;81.75;100582.94;5061172;28;20110;-85
2021/12/31 06:37:58;;;;;;;8.10;3.30;;;;;;;12.26;81.79;100600.75;5065978;28;20041;-86
2021/12/31 06:40:25;;;;;;;8.27;3.00;;;;;;;12.25;81.79;100584.88;5070042;28;20059;-85
2021/12/31 06:42:53;;;;;;;7.22;3.97;;;;;;;12.25;81.69;100588.38;5082047;28;20048;-87
2021/12/31 06:45:19;;;;;;;8.77;3.30;;;;;;;12.25;81.76;100590.22;5060846;28;20052;-87
2021/12/31 06:47:46;;;;;;;9.30;2.90;;;;;;;12.25;81.43;100590.22;5048966;28;20119;-86
2021/12/31 06:50:13;;;;;;;6.10;3.60;;;;;;;12.24;81.54;100588.53;5064901;28;20495;-87
2021/12/31 06:52:42;;;;;;;11.77;3.30;;;;;;;12.23;81.27;100594.81;5062142;28;20052;-88
2021/12/31 06:55:10;;;;;;;8.02;2.85;;;;;;;12.22;81.15;100585.13;5079881;28;20059;-88
2021/12/31 06:57:36;;;;;;;12.23;3.03;;;;;;;12.22;81.51;100593.13;5056874;28;20045;-87
2021/12/31 07:00:04;;;;;;;8.25;3.20;;;;;;;12.21;81.33;100592.25;5070783;28;20046;-87
2021/12/31 07:02:31;;;;;;;8.13;2.85;;;;;;;12.20;81.23;100592.41;5048742;28;20043;-88
2021/12/31 07:04:58;;;;;;;5.30;2.33;;;;;;;12.18;81.20;100592.53;5050666;28;20044;-86
2021/12/31 07:07:25;;;;;;;6.68;3.22;;;;;;;12.18;81.32;100579.22;5056925;28;20052;-88
2021/12/31 07:09:52;;;;;;;8.95;3.25;;;;;;;12.16;81.19;100579.34;5066233;28;20052;-88
2021/12/31 07:12:18;;;;;;;10.55;3.80;;;;;;;12.15;81.34;100577.66;5056198;28;20040;-88
2021/12/31 07:14:45;;;;;;;6.40;3.97;;;;;;;12.16;81.17;100578.47;5024288;28;20056;-88
2021/12/31 07:17:12;;;;;;;14.02;5.82;;;;;;;12.14;81.13;100581.28;5060106;28;20049;-87
2021/12/31 07:19:39;;;;;;;19.63;7.45;;;;;;;12.13;80.98;100584.06;5080162;28;20128;-88
2021/12/31 07:22:05;;;;;;;16.30;8.18;;;;;;;12.11;81.19;100589.53;5063287;28;20044;-88
2021/12/31 07:24:32;;;;;;;22.80;9.18;;;;;;;12.10;80.73;100587.84;5069218;28;20051;-87
2021/12/31 07:26:59;;;;;;;14.50;9.07;;;;;;;12.08;80.63;100589.78;5039359;28;20591;-88
2021/12/31 07:29:26;;;;;;;18.58;8.55;;;;;;;12.09;80.79;100596.81;5030923;28;20044;-88
2021/12/31 07:31:52;;;;;;;10.73;6.78;;;;;;;12.08;80.67;100589.78;5040438;28;20044;-87
2021/12/31 07:34:19;;;;;;;9.48;5.72;;;;;;;12.06;80.83;100591.75;5059899;28;20108;-87
2021/12/31 07:36:46;;;;;;;6.68;3.80;;;;;;;12.06;80.66;100597.06;5068476;28;20040;-87
2021/12/31 07:39:13;;;;;;;6.28;3.38;;;;;;;12.06;80.92;100594.41;5083364;28;20434;-87
2021/12/31 07:41:40;;;;;;;14.07;3.75;;;;;;;12.05;80.75;100587.38;5051412;28;20115;-87
2021/12/31 07:44:07;;;;;;;6.65;3.60;;;;;;;12.04;80.21;100582.19;5051938;28;20089;-87
2021/12/31 07:46:34;;;;;;;7.25;3.83;;;;;;;12.02;80.12;100579.66;5033103;28;20459;-86
2021/12/31 07:49:01;;;;;;;12.18;3.67;;;;;;;12.01;80.10;100580.63;5063303;28;20031;-88
2021/12/31 07:51:27;;;;;;;8.48;3.70;;;;;;;11.99;79.97;100573.75;5083576;28;20039;-87
2021/12/31 07:53:56;;;;;;;8.30;5.35;;;;;;;11.96;79.71;100582.81;5054118;28;20040;-85
2021/12/31 07:56:23;;;;;;;9.52;5.70;;;;;;;11.93;79.31;100589.25;5081284;28;20491;-88
2021/12/31 07:58:50;;;;;;;11.13;6.28;;;;;;;11.92;79.30;100594.69;5075151;28;20036;-87
2021/12/31 08:01:17;;;;;;;12.05;5.85;;;;;;;11.91;79.40;100593.84;5066456;28;20044;-87
2021/12/31 08:03:44;;;;;;;10.00;4.95;;;;;;;11.92;79.82;100594.69;5033860;28;20060;-87
2021/12/31 08:06:11;;;;;;;30.35;12.57;;;;;;;11.92;80.11;100598.19;5032189;28;20044;-87
2021/12/31 08:08:38;;;;;;;20.73;8.55;;;;;;;11.93;80.09;100591.03;5053061;28;20044;-87
2021/12/31 08:11:04;;;;;;;13.98;6.50;;;;;;;11.92;79.94;100590.19;5068100;28;20050;-87
2021/12/31 08:13:31;;;;;;;13.60;6.60;;;;;;;11.92;80.23;100587.53;5065028;28;20510;-88
2021/12/31 08:15:58;;;;;;;16.08;8.57;;;;;;;11.92;80.17;100594.69;5032273;28;20059;-87
2021/12/31 08:18:25;;;;;;;13.38;8.38;;;;;;;11.93;80.04;100593.69;5048143;28;20052;-86
2021/12/31 08:20:53;;;;;;;13.75;7.43;;;;;;;11.93;79.96;100591.91;5046528;28;20050;-88
2021/12/31 08:30:48;;;;;;;41.83;19.58;;;;;;;11.86;80.10;100592.50;5015788;28;20511;-87
2021/12/31 08:33:14;;;;;;;62.83;30.30;;;;;;;11.86;79.98;100588.06;5032701;28;20097;-87
2021/12/31 08:35:41;;;;;;;45.15;23.92;;;;;;;11.87;80.03;100589.72;5078917;28;21376;-87
2021/12/31 08:38:08;;;;;;;35.53;19.38;;;;;;;11.89;79.98;100589.63;5045974;28;20053;-93
2021/12/31 08:40:35;;;;;;;24.52;12.05;;;;;;;11.88;79.91;100590.56;5079939;28;20093;-92
2021/12/31 08:43:02;;;;;;;19.70;10.63;;;;;;;11.88;80.00;100587.91;5015024;28;20040;-93
2021/12/31 08:45:32;;;;;;;21.63;10.02;;;;;;;11.90;80.18;100584.16;5018530;28;20048;-87
2021/12/31 08:48:03;;;;;;;13.90;8.73;;;;;;;11.84;79.57;100571.31;5059398;28;20146;-87
2021/12/31 08:50:31;;;;;;;17.80;9.70;;;;;;;11.90;80.01;100580.66;5046251;28;20429;-87
2021/12/31 08:52:58;;;;;;;19.83;10.15;;;;;;;11.89;80.33;100581.63;5049481;28;20380;-88
2021/12/31 08:59:13;;;;;;;17.27;8.82;;;;;;;11.87;80.41;100573.75;4992489;28;20416;-92
2021/12/31 09:01:39;;;;;;;18.85;10.30;;;;;;;11.88;80.36;100567.50;5056796;28;20492;-91
2021/12/31 09:08:50;;;;;;;21.60;11.85;;;;;;;11.85;80.59;100570.34;5050644;28;20055;-93
2021/12/31 09:16:02;;;;;;;17.42;8.68;;;;;;;11.80;80.61;100572.53;5066138;28;20039;-93
2021/12/31 09:18:29;;;;;;;14.90;7.55;;;;;;;11.88;80.46;100574.59;5062013;28;20123;-90
2021/12/31 09:20:57;;;;;;;13.80;7.65;;;;;;;11.89;80.86;100577.16;5065382;28;20044;-89
2021/12/31 09:23:23;;;;;;;16.70;7.70;;;;;;;11.91;80.43;100566.38;5064085;28;20483;-89
2021/12/31 09:25:50;;;;;;;15.75;7.57;;;;;;;11.93;80.49;100572.41;5075833;28;20043;-89
2021/12/31 09:28:17;;;;;;;12.48;7.18;;;;;;;11.92;80.56;100574.22;5046771;28;20043;-89
2021/12/31 09:30:44;;;;;;;11.20;7.22;;;;;;;11.94;80.39;100571.44;5080783;28;20043;-89
2021/12/31 09:33:12;;;;;;;14.55;8.80;;;;;;;11.94;80.80;100568.78;5087579;28;20379;-88
2021/12/31 09:35:40;;;;;;;15.20;8.43;;;;;;;11.97;80.59;100578.34;5081484;28;20040;-93
2021/12/31 09:38:09;;;;;;;20.40;8.45;;;;;;;11.98;80.64;100583.50;5034076;28;20047;-93
2021/12/31 09:44:24;;;;;;;15.35;8.32;;;;;;;11.93;80.41;100583.06;5002018;28;20128;-87
2021/12/31 09:46:51;;;;;;;16.08;8.75;;;;;;;11.97;80.69;100587.16;5035126;28;20045;-86
2021/12/31 09:49:22;;;;;;;17.00;8.75;;;;;;;11.96;80.44;100593.47;5026609;28;20040;-87
2021/12/31 09:51:49;;;;;;;14.73;8.80;;;;;;;12.03;80.77;100593.78;5067681;28;20136;-91
2021/12/31 09:54:21;;;;;;;18.00;8.45;;;;;;;12.04;80.54;100598.16;5049524;28;20079;-89
2021/12/31 09:56:49;;;;;;;15.48;7.32;;;;;;;12.05;80.52;100598.00;5046538;28;20482;-92
2021/12/31 09:59:17;;;;;;;14.35;7.43;;;;;;;12.06;80.56;100597.06;5050231;28;20105;-91
2021/12/31 10:01:45;;;;;;;10.70;6.30;;;;;;;12.08;80.40;100596.91;5097545;28;20073;-93
2021/12/31 10:04:12;;;;;;;10.07;6.47;;;;;;;12.09;80.41;100588.81;5039632;28;20387;-92
2021/12/31 10:07:05;;;;;;;11.60;6.68;;;;;;;11.97;80.53;100578.34;5077868;28;20082;-92
2021/12/31 10:09:40;;;;;;;10.20;5.53;;;;;;;12.06;80.46;100586.41;5080362;28;20073;-89
2021/12/31 10:12:12;;;;;;;9.70;5.63;;;;;;;12.13;80.57;100578.75;5019191;28;20053;-91
2021/12/31 10:14:40;;;;;;;10.02;4.82;;;;;;;12.15;80.45;100574.16;5018382;28;20123;-90
2021/12/31 10:18:02;;;;;;;8.95;4.90;;;;;;;12.02;80.56;100563.66;5032860;28;20041;-92
2021/12/31 10:21:20;;;;;;;11.48;5.65;;;;;;;12.02;80.96;100560.16;5046907;28;20102;-93
2021/12/31 10:24:17;;;;;;;10.15;4.90;;;;;;;12.02;81.05;100561.00;4970861;28;20596;-93
2021/12/31 10:26:45;;;;;;;9.82;5.03;;;;;;;12.18;80.96;100559.72;4958775;28;20068;-80
2021/12/31 10:29:13;;;;;;;10.48;4.75;;;;;;;12.21;80.81;100554.16;5030979;28;20075;-82
2021/12/31 10:31:47;;;;;;;8.15;4.55;;;;;;;12.14;80.80;100537.84;5014062;28;22457;-83
2021/12/31 10:34:32;;;;;;;8.32;4.55;;;;;;;12.11;81.07;100538.09;5041846;28;20041;-81
2021/12/31 10:37:02;;;;;;;10.32;4.75;;;;;;;12.24;80.87;100540.59;4981778;28;20151;-82
2021/12/31 10:39:32;;;;;;;7.65;4.80;;;;;;;12.26;80.75;100536.84;5030414;28;20218;-82
2021/12/31 10:41:59;;;;;;;8.00;4.68;;;;;;;12.27;80.46;100535.00;5033113;28;20064;-81
2021/12/31 10:44:44;;;;;;;6.70;4.00;;;;;;;12.19;80.70;100545.44;5067695;28;20190;-84
2021/12/31 10:47:17;;;;;;;10.10;4.35;;;;;;;12.29;80.53;100530.41;5055093;28;20053;-82
2021/12/31 10:50:03;;;;;;;8.82;4.10;;;;;;;12.21;80.79;100532.84;5050910;28;20044;-82
2021/12/31 10:52:44;;;;;;;10.27;4.93;;;;;;;12.29;80.81;100531.25;5024526;28;20460;-81
2021/12/31 10:57:45;;;;;;;7.43;4.83;;;;;;;12.35;80.56;100535.19;5044681;28;20127;-82
2021/12/31 11:00:13;;;;;;;7.90;4.15;;;;;;;12.40;80.88;100526.81;5030906;28;20450;-82
2021/12/31 11:02:40;;;;;;;10.10;4.40;;;;;;;12.43;80.96;100522.06;5048586;28;20055;-82
2021/12/31 11:05:08;;;;;;;9.57;5.40;;;;;;;12.45;81.16;100525.44;5063330;28;20122;-82
2021/12/31 11:07:40;;;;;;;9.20;5.32;;;;;;;12.44;80.95;100521.09;5050144;28;20044;-81
2021/12/31 11:10:32;;;;;;;11.05;4.88;;;;;;;12.46;80.67;100524.47;5066009;28;20496;-83
2021/12/31 11:13:21;;;;;;;10.23;4.57;;;;;;;12.36;81.17;100524.44;5050726;28;20043;-83
2021/12/31 11:15:52;;;;;;;7.28;4.20;;;;;;;12.51;81.17;100524.06;5000357;28;20129;-81
2021/12/31 11:18:23;;;;;;;11.27;4.82;;;;;;;12.55;80.65;100517.53;5053465;28;20043;-82
2021/12/31 11:20:57;;;;;;;6.78;4.07;;;;;;;12.52;80.87;100517.78;5071430;28;20047;-81
2021/12/31 11:23:24;;;;;;;;;;;;;;;12.33;81.65;100518.50;5014123;28;20048;-81
2021/12/31 11:26:27;;;;;;;7.07;4.60;;;;;;;12.41;80.88;100532.00;5054375;28;19921;-82
2021/12/31 11:28:55;;;;;;;9.60;4.60;;;;;;;12.57;80.82;100520.91;4976270;28;20495;-81
2021/12/31 11:31:24;;;;;;;5.75;3.67;;;;;;;12.60;80.56;100526.78;5086725;28;20044;-82
2021/12/31 11:33:59;;;;;;;8.75;4.18;;;;;;;12.57;80.33;100536.88;5023731;28;20116;-81
2021/12/31 11:36:39;;;;;;;7.50;3.67;;;;;;;12.49;79.93;100540.22;5059674;28;20048;-82
2021/12/31 11:39:28;;;;;;;6.43;3.72;;;;;;;12.46;80.45;100529.78;5046440;28;20056;-81
2021/12/31 11:41:59;;;;;;;8.82;3.38;;;;;;;12.59;80.62;100524.25;4999404;28;20044;-82
2021/12/31 11:44:27;;;;;;;6.57;3.40;;;;;;;12.63;80.69;100524.84;5030961;28;20122;-82
2021/12/31 11:47:14;;;;;;;7.75;4.07;;;;;;;12.52;80.88;100528.44;5047458;28;20040;-84
2021/12/31 11:49:43;;;;;;;10.52;4.35;;;;;;;12.68;80.73;100538.63;5042192;28;20045;-82
2021/12/31 11:52:20;;;;;;;13.10;4.80;;;;;;;12.68;80.90;100544.78;5050643;28;20495;-83
2021/12/31 11:55:18;;;;;;;8.52;4.55;;;;;;;12.56;80.66;100540.50;5028955;28;20128;-83
2021/12/31 11:58:33;;;;;;;8.93;4.10;;;;;;;12.55;80.60;100544.16;4979882;28;20041;-83
2021/12/31 12:01:39;;;;;;;6.85;4.38;;;;;;;12.53;80.64;100536.28;4940384;28;20128;-83
2021/12/31 12:04:25;;;;;;;7.90;3.67;;;;;;;12.55;80.58;100537.00;4941862;28;20038;-80
2021/12/31 12:07:02;;;;;;;9.80;3.80;;;;;;;12.63;80.28;100536.34;4990142;28;20038;-82
2021/12/31 12:09:36;;;;;;;8.05;3.70;;;;;;;12.62;80.32;100526.69;4999561;28;20046;-82
2021/12/31 12:12:31;;;;;;;9.32;3.95;;;;;;;12.56;80.66;100520.03;5022985;28;20049;-82
2021/12/31 12:15:02;;;;;;;8.27;3.67;;;;;;;12.68;80.67;100525.28;5002057;28;20046;-82
2021/12/31 12:17:29;;;;;;;7.40;3.42;;;;;;;12.70;81.06;100526.00;5000350;28;20045;-82
2021/12/31 12:19:56;;;;;;;5.88;3.63;;;;;;;12.73;80.99;100513.25;5006200;28;20049;-83
2021/12/31 12:22:28;;;;;;;5.65;3.58;;;;;;;12.74;80.90;100503.44;5041111;28;20120;-81
2021/12/31 12:24:56;;;;;;;8.07;3.00;;;;;;;12.75;81.08;100487.31;5024352;28;20107;-81
2021/12/31 12:27:24;;;;;;;7.93;4.18;;;;;;;12.74;81.29;100482.94;5045930;28;20049;-82
2021/12/31 12:29:52;;;;;;;9.93;3.60;;;;;;;12.76;81.33;100465.03;5047649;28;20044;-82
2021/12/31 12:32:32;;;;;;;5.32;3.40;;;;;;;12.78;81.35;100457.75;5029357;28;20051;-82
2021/12/31 12:35:12;;;;;;;6.90;2.97;;;;;;;12.70;81.19;100475.38;5006904;28;20040;-82
2021/12/31 12:37:38;;;;;;;6.78;3.30;;;;;;;12.78;81.85;100472.88;5032485;28;20061;-81
2021/12/31 12:40:06;;;;;;;7.15;3.10;;;;;;;12.79;81.49;100463.91;5066021;28;20032;-80
2021/12/31 12:42:33;;;;;;;5.00;2.85;;;;;;;12.77;81.87;100461.41;5038427;28;20507;-82